Time;durP1;ratioP1;P1;durP2;ratioP2;P2;SDS_P1;SDS_P2;PMS_P1;PMS_P2;Temp;Humidity;BMP_temperature;BMP_pressure;BME280_temperature;BME280_humidity;BME280_pressure;Samples;Min_cycle;Max_cycle;Signal;HPM_P1;HPM_P2
2022/12/12 00:01:24;;;;;;;48.72;22.83;;;;;;;2.50;61.85;97947.94;5091649;28;20145;-46
2022/12/12 00:03:50;;;;;;;46.08;26.60;;;;;;;2.70;61.92;97950.94;5090376;28;20036;-46
2022/12/12 00:06:16;;;;;;;46.15;24.98;;;;;;;2.66;61.26;97950.47;5091603;28;20027;-45
2022/12/12 00:08:42;;;;;;;41.75;24.73;;;;;;;2.68;60.89;97952.91;5091627;28;20024;-46
2022/12/12 00:11:08;;;;;;;48.50;24.13;;;;;;;2.70;61.05;97953.53;5091589;28;20020;-46
2022/12/12 00:13:34;;;;;;;43.08;25.35;;;;;;;2.76;60.87;97945.09;5090296;28;20027;-46
2022/12/12 00:16:00;;;;;;;43.67;24.25;;;;;;;2.78;61.05;97946.53;5091569;28;20550;-46
2022/12/12 00:18:25;;;;;;;46.15;25.27;;;;;;;2.89;60.53;97945.34;5091596;28;20032;-46
2022/12/12 00:20:53;;;;;;;50.72;25.25;;;;;;;2.92;60.62;97952.78;5091358;28;20044;-46
2022/12/12 00:23:19;;;;;;;41.88;24.77;;;;;;;2.88;60.05;97953.28;5091479;28;20386;-46
2022/12/12 00:25:51;;;;;;;42.70;23.73;;;;;;;2.78;60.71;97954.31;5091567;28;20020;-46
2022/12/12 00:28:17;;;;;;;42.35;24.60;;;;;;;2.74;60.18;97949.63;5091516;28;20062;-46
2022/12/12 00:30:42;;;;;;;44.35;23.90;;;;;;;2.64;60.44;97949.03;5092159;28;20023;-46
2022/12/12 00:33:08;;;;;;;54.63;28.83;;;;;;;2.55;60.82;97948.22;5095337;28;20382;-46
2022/12/12 00:35:33;;;;;;;45.28;24.42;;;;;;;2.63;60.98;97939.63;5095362;28;20027;-45
2022/12/12 00:37:59;;;;;;;45.92;24.35;;;;;;;2.75;60.99;97951.25;5093952;28;20020;-46
2022/12/12 00:40:25;;;;;;;41.97;24.83;;;;;;;2.77;60.92;97946.69;5095116;28;20032;-46
2022/12/12 00:42:50;;;;;;;46.60;22.90;;;;;;;2.73;60.73;97948.81;5093858;28;20028;-46
2022/12/12 00:45:16;;;;;;;50.90;25.70;;;;;;;2.68;60.99;97947.72;5093789;28;20039;-46
2022/12/12 00:47:41;;;;;;;39.88;22.60;;;;;;;2.76;60.99;97947.69;5095081;28;20019;-46
2022/12/12 00:50:07;;;;;;;48.15;23.45;;;;;;;2.93;61.52;97946.63;5093682;28;20028;-46
2022/12/12 00:52:33;;;;;;;48.08;22.92;;;;;;;3.19;61.00;97948.91;5095029;28;20038;-46
2022/12/12 00:54:59;;;;;;;42.28;22.58;;;;;;;3.26;60.47;97949.03;5094963;28;20600;-46
2022/12/12 00:57:24;;;;;;;42.97;24.27;;;;;;;3.35;60.60;97952.38;5094850;28;20385;-46
2022/12/12 00:59:50;;;;;;;48.60;25.02;;;;;;;3.40;60.20;97947.47;5093524;28;20521;-46
2022/12/12 01:02:15;;;;;;;40.38;23.20;;;;;;;3.54;60.04;97948.50;5094939;28;20030;-46
2022/12/12 01:04:41;;;;;;;41.78;25.05;;;;;;;3.52;59.63;97933.16;5094735;28;20058;-46
2022/12/12 01:07:06;;;;;;;42.78;22.65;;;;;;;3.29;59.47;97945.28;5094700;28;20095;-46
2022/12/12 01:09:33;;;;;;;51.75;24.95;;;;;;;3.33;60.06;97949.97;5093371;28;20107;-46
2022/12/12 01:11:58;;;;;;;38.90;24.23;;;;;;;3.38;60.17;97952.03;5094600;28;20027;-46
2022/12/12 01:14:24;;;;;;;43.70;24.20;;;;;;;3.38;59.49;97958.03;5093275;28;20032;-46
2022/12/12 01:16:50;;;;;;;46.83;24.95;;;;;;;3.27;59.50;97958.44;5093208;28;20498;-46
2022/12/12 01:19:15;;;;;;;43.17;24.02;;;;;;;3.09;59.76;97963.06;5094656;28;20032;-46
2022/12/12 01:21:41;;;;;;;41.15;23.38;;;;;;;3.05;60.09;97972.97;5094193;28;20494;-46
2022/12/12 01:24:06;;;;;;;42.22;23.58;;;;;;;3.14;60.25;97974.56;5094410;28;20028;-46
2022/12/12 01:26:32;;;;;;;45.30;24.88;;;;;;;3.32;60.06;97968.28;5093112;28;20031;-46
2022/12/12 01:28:58;;;;;;;45.85;25.30;;;;;;;3.24;59.50;97978.69;5092992;28;20111;-46
2022/12/12 01:31:23;;;;;;;48.33;26.60;;;;;;;3.17;59.40;97979.38;5094162;28;20036;-46
2022/12/12 01:33:49;;;;;;;46.10;21.73;;;;;;;3.00;59.63;97985.63;5092872;28;20575;-46
2022/12/12 01:36:18;;;;;;;38.13;22.83;;;;;;;2.84;59.69;97977.91;5092825;28;20020;-46
2022/12/12 01:38:50;;;;;;;38.35;22.40;;;;;;;2.68;59.62;97981.41;5092830;28;20012;-46
2022/12/12 01:41:16;;;;;;;43.70;25.67;;;;;;;2.66;60.31;97976.38;5092651;28;20074;-46
2022/12/12 01:43:43;;;;;;;45.80;25.92;;;;;;;2.58;59.89;97976.41;5093230;28;20020;-46
2022/12/12 01:46:53;;;;;;;45.28;26.25;;;;;;;2.60;60.93;97980.44;5092571;28;20513;-46
2022/12/12 01:49:26;;;;;;;52.35;24.65;;;;;;;2.67;60.80;97983.16;5090770;28;20421;-46
2022/12/12 01:51:56;;;;;;;57.83;28.67;;;;;;;2.72;61.85;97982.69;5093899;28;20036;-46
2022/12/12 01:54:44;;;;;;;44.53;26.08;;;;;;;2.75;60.57;97987.50;5092504;28;20049;-46
2022/12/12 01:57:19;;;;;;;47.58;23.55;;;;;;;2.64;61.07;97985.31;5093759;28;20032;-46
2022/12/12 01:59:45;;;;;;;44.15;24.13;;;;;;;2.63;61.34;97999.22;5093762;28;20398;-46
2022/12/12 02:02:11;;;;;;;47.42;26.60;;;;;;;2.74;61.07;97991.88;5092229;28;20036;-46
2022/12/12 02:04:38;;;;;;;42.28;26.38;;;;;;;2.85;60.98;97989.91;5092267;28;20497;-46
2022/12/12 02:07:04;;;;;;;45.65;27.17;;;;;;;2.62;60.13;97995.81;5092201;28;20028;-46
2022/12/12 02:09:32;;;;;;;45.95;24.20;;;;;;;2.31;61.13;97993.94;5093517;28;20371;-46
2022/12/12 02:11:58;;;;;;;45.08;24.08;;;;;;;2.39;62.15;97995.69;5109173;28;20020;-46
2022/12/12 02:14:31;;;;;;;40.72;23.60;;;;;;;2.63;61.55;97992.25;5093360;28;20050;-46
2022/12/12 02:17:05;;;;;;;40.60;23.65;;;;;;;2.78;61.07;97992.38;5093369;28;20016;-46
2022/12/12 02:20:21;;;;;;;46.92;25.95;;;;;;;2.81;60.63;98002.38;5091746;28;20081;-47
2022/12/12 02:23:05;;;;;;;44.20;25.95;;;;;;;2.83;61.01;97997.84;5066880;28;20084;-46
2022/12/12 02:25:58;;;;;;;38.15;23.73;;;;;;;2.92;61.04;97996.03;5091915;28;20036;-46
2022/12/12 02:29:00;;;;;;;60.88;37.55;;;;;;;2.73;60.95;97992.06;5093224;28;20028;-46
2022/12/12 02:31:35;;;;;;;46.88;27.92;;;;;;;2.80;60.75;97993.81;5093127;28;20057;-46
2022/12/12 02:34:16;;;;;;;58.50;36.42;;;;;;;2.68;60.75;97986.59;5093142;28;20024;-46
2022/12/12 02:37:10;;;;;;;43.83;26.10;;;;;;;2.73;61.00;97992.84;5093078;28;20024;-46
2022/12/12 02:40:03;;;;;;;47.03;25.13;;;;;;;2.80;60.92;97993.00;5092961;28;20024;-46
2022/12/12 02:42:59;;;;;;;45.65;23.63;;;;;;;2.80;61.13;98000.78;5092884;28;20074;-46
2022/12/12 02:45:27;;;;;;;;;;;;;;;2.73;60.92;97994.66;5093231;28;20547;-46
2022/12/12 02:48:00;;;;;;;41.30;21.40;;;;;;;2.52;61.52;98002.97;5092835;28;19916;-46
2022/12/12 02:50:28;;;;;;;52.20;26.23;;;;;;;2.55;61.32;97994.84;5091478;28;20070;-46
2022/12/12 02:52:54;;;;;;;42.80;26.10;;;;;;;2.37;61.59;97997.66;5091349;28;20048;-46
2022/12/12 02:55:20;;;;;;;44.60;26.63;;;;;;;2.17;60.90;97998.03;5091254;28;20059;-46
2022/12/12 02:57:48;;;;;;;41.63;25.08;;;;;;;2.04;61.94;97983.97;5092594;28;20024;-46
2022/12/12 03:00:17;;;;;;;40.03;22.63;;;;;;;2.02;62.02;97991.88;5092583;28;20099;-46
2022/12/12 03:09:37;;;;;;;39.55;20.55;;;;;;;2.05;62.51;97988.94;5092686;28;20039;-46
2022/12/12 03:12:40;;;;;;;42.58;23.48;;;;;;;2.04;62.68;97983.97;5092429;28;20032;-46
2022/12/12 03:15:08;;;;;;;45.60;25.42;;;;;;;2.07;62.70;97981.81;5092238;28;20413;-46
2022/12/12 03:18:16;;;;;;;57.72;28.75;;;;;;;1.95;63.16;97983.13;5092536;28;20367;-46
2022/12/12 03:20:49;;;;;;;;;;;;;;;1.97;63.03;97976.00;5084326;28;20048;-46
2022/12/12 03:23:22;;;;;;;41.35;25.25;;;;;;;2.19;63.48;97992.66;5092131;28;19916;-46
2022/12/12 03:26:00;;;;;;;38.38;22.50;;;;;;;2.50;63.51;97994.56;5091228;28;20071;-46
2022/12/12 03:28:35;;;;;;;39.92;23.98;;;;;;;2.60;61.84;97990.78;5090898;28;20463;-46
2022/12/12 03:31:06;;;;;;;38.33;23.30;;;;;;;2.44;61.87;97993.44;5092082;28;20062;-46
2022/12/12 03:33:45;;;;;;;38.05;20.60;;;;;;;2.43;62.50;97989.22;5090800;28;20034;-46
2022/12/12 03:36:29;;;;;;;38.92;23.15;;;;;;;2.55;62.37;97987.09;5090740;28;20547;-46
2022/12/12 03:39:24;;;;;;;39.50;21.60;;;;;;;2.60;62.24;97975.25;5092064;28;20397;-46
2022/12/12 03:42:17;;;;;;;33.22;19.08;;;;;;;2.58;61.68;97987.56;5091953;28;20113;-46
2022/12/12 03:44:50;;;;;;;40.05;23.13;;;;;;;2.60;62.10;97987.41;5079872;28;20035;-46
2022/12/12 03:47:22;;;;;;;35.33;22.42;;;;;;;2.60;62.26;97988.22;5091963;28;20032;-46
2022/12/12 03:49:50;;;;;;;28.38;16.08;;;;;;;2.66;61.86;97985.94;5091939;28;20028;-46
2022/12/12 03:52:24;;;;;;;37.33;21.77;;;;;;;2.61;61.67;97999.38;5090766;28;20067;-46
2022/12/12 03:55:03;;;;;;;35.70;20.52;;;;;;;2.63;61.75;98005.19;5091931;28;20383;-46
2022/12/12 03:57:42;;;;;;;37.13;21.67;;;;;;;2.62;62.27;98005.34;5090688;28;20497;-46
2022/12/12 04:00:12;;;;;;;48.70;26.25;;;;;;;2.62;63.71;98001.00;5091745;28;20032;-46
2022/12/12 04:02:50;;;;;;;48.65;25.00;;;;;;;2.70;62.35;98007.94;5091652;28;20485;-46
2022/12/12 04:06:25;;;;;;;44.90;25.05;;;;;;;2.58;62.18;98008.28;5091814;28;20024;-46
2022/12/12 04:08:24;;;;;;;38.35;24.92;;;;;;;2.32;60.87;98007.69;5095688;28;20042;-46
2022/12/12 04:14:10;;;;;;;34.63;19.90;;;;;;;1.54;62.76;98011.56;5095855;28;20057;-46
2022/12/12 04:16:41;;;;;;;37.58;25.02;;;;;;;1.55;62.11;98008.00;5087405;28;20036;-46
2022/12/12 04:23:13;;;;;;;38.10;24.95;;;;;;;1.33;62.15;98006.84;5095699;28;20032;-46
2022/12/12 04:25:07;;;;;;;38.17;21.30;;;;;;;0.78;64.37;98008.09;5095869;28;20066;-46
2022/12/12 04:27:48;;;;;;;46.58;23.00;;;;;;;0.83;64.13;98008.47;5095621;28;20028;-46
2022/12/12 04:30:15;;;;;;;41.38;25.25;;;;;;;0.66;64.43;98023.06;5095439;28;20063;-46
2022/12/12 04:32:50;;;;;;;42.60;26.63;;;;;;;0.78;65.28;98021.81;5094135;28;20032;-46
2022/12/12 04:35:51;;;;;;;44.97;25.95;;;;;;;0.70;65.09;98020.97;5095279;28;20025;-46
2022/12/12 04:38:23;;;;;;;41.67;25.73;;;;;;;0.69;65.48;98012.44;5032824;28;20029;-46
2022/12/12 04:40:52;;;;;;;45.13;24.67;;;;;;;0.74;65.83;98011.97;5032807;28;20060;-46
2022/12/12 04:43:24;;;;;;;43.90;19.17;;;;;;;0.72;66.21;98024.22;5032716;28;20138;-46
2022/12/12 04:45:57;;;;;;;45.70;22.55;;;;;;;0.77;66.00;98029.75;5016124;28;20047;-46
2022/12/12 04:48:29;;;;;;;37.38;18.23;;;;;;;0.84;66.32;98022.19;5016093;28;20025;-46
2022/12/12 04:50:57;;;;;;;46.28;25.67;;;;;;;0.94;65.53;98026.25;5032697;28;20044;-46
2022/12/12 04:53:34;;;;;;;40.55;26.02;;;;;;;0.82;65.32;98018.94;5032564;28;20037;-46
2022/12/12 04:56:05;;;;;;;45.63;27.25;;;;;;;0.76;65.84;98022.94;5015895;28;20411;-46
2022/12/12 04:58:31;;;;;;;45.15;25.20;;;;;;;0.78;65.14;98026.19;5015888;28;20129;-46
2022/12/12 05:01:08;;;;;;;42.83;25.88;;;;;;;0.71;65.73;98038.09;5015760;28;20120;-46
2022/12/12 05:03:56;;;;;;;47.78;24.73;;;;;;;0.60;65.39;98041.75;5032451;28;20400;-46
2022/12/12 05:06:30;;;;;;;50.63;26.88;;;;;;;0.36;66.17;98037.25;5032340;28;20132;-46
2022/12/12 05:08:57;;;;;;;42.17;23.15;;;;;;;0.49;66.99;98037.66;5015671;28;20140;-46
2022/12/12 05:11:23;;;;;;;45.67;22.65;;;;;;;0.76;66.46;98041.03;5041036;28;20036;-46
2022/12/12 05:13:49;;;;;;;42.72;25.17;;;;;;;1.07;65.98;98043.91;5094887;28;20367;-46
2022/12/12 05:16:31;;;;;;;34.03;19.35;;;;;;;1.28;64.33;98042.69;5094701;28;20035;-46
2022/12/12 05:18:57;;;;;;;44.00;26.33;;;;;;;1.20;64.20;98051.22;5093694;28;20027;-46
2022/12/12 05:21:23;;;;;;;41.70;22.60;;;;;;;1.16;64.01;98044.75;5092859;28;20039;-46
2022/12/12 05:23:48;;;;;;;38.58;19.73;;;;;;;1.21;64.50;98050.28;5094444;28;20042;-46
2022/12/12 05:26:35;;;;;;;43.40;23.48;;;;;;;1.12;63.63;98051.19;5092997;28;20019;-46
2022/12/12 05:29:00;;;;;;;;;;;;;;;0.96;64.20;98044.19;5094710;28;20050;-46
2022/12/12 05:31:27;;;;;;;56.10;25.47;;;;;;;0.98;64.71;98050.81;5094312;28;20015;-46
2022/12/12 05:33:52;;;;;;;49.00;26.67;;;;;;;1.05;64.67;98053.59;5094471;28;20251;-46
2022/12/12 05:36:18;;;;;;;48.90;24.83;;;;;;;0.95;65.15;98052.91;5094142;28;20525;-46
2022/12/12 05:38:44;;;;;;;48.05;28.67;;;;;;;0.86;65.29;98059.81;5094182;28;20027;-46
2022/12/12 05:41:10;;;;;;;44.75;26.98;;;;;;;0.67;65.02;98053.09;5092739;28;20115;-46
2022/12/12 05:43:36;;;;;;;55.65;27.67;;;;;;;0.53;66.18;98053.66;5092604;28;20473;-46
2022/12/12 05:46:03;;;;;;;50.85;25.73;;;;;;;0.55;66.30;98057.69;5092652;28;20016;-46
2022/12/12 05:48:29;;;;;;;45.60;24.00;;;;;;;0.59;67.15;98059.00;5092646;28;20038;-46
2022/12/12 05:50:54;;;;;;;40.47;20.02;;;;;;;0.80;66.83;98068.16;5092522;28;20020;-46
2022/12/12 05:53:20;;;;;;;43.22;22.48;;;;;;;1.04;66.32;98071.84;5093852;28;20024;-46
2022/12/12 05:55:51;;;;;;;49.10;24.73;;;;;;;1.27;65.73;98067.75;5093787;28;20024;-46
2022/12/12 05:58:18;;;;;;;46.05;23.05;;;;;;;1.35;65.83;98065.19;5093827;28;20488;-46
2022/12/12 06:00:47;;;;;;;42.92;23.73;;;;;;;1.46;65.43;98064.06;5092427;28;20023;-46
2022/12/12 06:03:13;;;;;;;51.03;23.30;;;;;;;1.45;65.24;98065.06;5093562;28;20503;-46
2022/12/12 06:05:39;;;;;;;46.28;22.65;;;;;;;1.74;65.21;98072.38;5093629;28;20024;-46
2022/12/12 06:08:05;;;;;;;49.33;23.67;;;;;;;1.90;63.45;98063.84;5092279;28;20398;-46
2022/12/12 06:10:30;;;;;;;44.72;24.27;;;;;;;2.03;63.76;98065.94;5093539;28;20366;-46
2022/12/12 06:12:56;;;;;;;41.80;23.17;;;;;;;2.19;63.15;98065.97;5093512;28;20032;-46
2022/12/12 06:15:21;;;;;;;41.70;23.65;;;;;;;2.20;63.17;98066.78;5092060;28;20142;-46
2022/12/12 06:17:50;;;;;;;43.22;24.83;;;;;;;2.22;62.69;98066.63;5092206;28;20062;-46
2022/12/12 06:20:16;;;;;;;52.50;28.88;;;;;;;2.32;63.14;98067.25;5092999;28;20058;-46
2022/12/12 06:22:42;;;;;;;52.80;24.80;;;;;;;2.64;63.39;98065.59;5093193;28;20024;-46
2022/12/12 06:25:08;;;;;;;42.38;23.27;;;;;;;2.86;62.77;98064.06;5093235;28;20476;-46
2022/12/12 06:27:34;;;;;;;51.80;25.55;;;;;;;3.11;62.09;98075.97;5091891;28;20020;-46
2022/12/12 06:29:59;;;;;;;50.75;25.60;;;;;;;3.19;61.72;98070.75;5091561;28;20024;-46
2022/12/12 06:32:25;;;;;;;44.05;25.00;;;;;;;3.28;61.25;98081.94;5093385;28;20031;-46
2022/12/12 06:34:50;;;;;;;49.17;27.05;;;;;;;2.83;59.56;98085.94;5093059;28;20434;-46
2022/12/12 06:37:16;;;;;;;40.13;22.10;;;;;;;2.44;60.43;98094.44;5093038;28;20362;-46
2022/12/12 06:39:42;;;;;;;36.30;21.38;;;;;;;2.18;60.35;98092.81;5092954;28;20486;-46
2022/12/12 06:42:07;;;;;;;34.70;19.90;;;;;;;1.96;60.83;98088.28;5092779;28;20401;-46
2022/12/12 06:44:33;;;;;;;46.30;21.40;;;;;;;1.86;61.76;98085.03;5092766;28;20028;-46
2022/12/12 06:46:59;;;;;;;39.38;23.17;;;;;;;1.91;62.14;98091.34;5092796;28;20393;-46
2022/12/12 06:49:24;;;;;;;44.42;22.45;;;;;;;1.71;61.55;98084.81;5092764;28;20024;-46
2022/12/12 06:51:50;;;;;;;50.83;23.70;;;;;;;1.49;63.21;98086.22;5092922;28;20081;-46
2022/12/12 06:54:17;;;;;;;40.47;23.15;;;;;;;1.56;63.17;98092.38;5092739;28;20031;-46
2022/12/12 06:56:43;;;;;;;46.63;23.58;;;;;;;1.53;63.65;98088.34;5092665;28;20020;-46
2022/12/12 06:59:11;;;;;;;48.70;25.77;;;;;;;1.50;63.14;98088.66;5092609;28;20031;-46
2022/12/12 07:01:37;;;;;;;37.53;21.90;;;;;;;1.39;62.84;98087.16;5091187;28;20051;-46
2022/12/12 07:04:03;;;;;;;39.00;23.15;;;;;;;1.27;63.45;98092.75;5091171;28;20028;-46
2022/12/12 07:06:29;;;;;;;41.95;25.33;;;;;;;1.27;63.73;98093.59;5091158;28;20016;-46
2022/12/12 07:08:57;;;;;;;46.63;25.38;;;;;;;1.19;63.26;98088.38;5092438;28;20490;-46
2022/12/12 07:11:24;;;;;;;43.97;23.88;;;;;;;1.08;63.98;98088.66;5091311;28;20121;-46
2022/12/12 07:13:51;;;;;;;43.97;20.98;;;;;;;1.26;64.41;98080.81;5092652;28;20071;-46
2022/12/12 07:16:18;;;;;;;46.58;27.88;;;;;;;1.69;64.13;98085.00;5092189;28;20035;-46
2022/12/12 07:18:43;;;;;;;52.10;26.42;;;;;;;1.83;62.50;98080.94;5092213;28;20035;-46
2022/12/12 07:21:12;;;;;;;51.83;33.40;;;;;;;1.55;62.26;98083.00;5091917;28;20035;-46
2022/12/12 07:23:37;;;;;;;46.17;26.30;;;;;;;1.28;63.12;98084.84;5092108;28;20024;-46
2022/12/12 07:26:08;;;;;;;52.28;25.98;;;;;;;1.08;63.37;98089.47;5092165;28;20494;-46
2022/12/12 07:28:34;;;;;;;50.60;25.42;;;;;;;1.04;64.40;98089.94;5091195;28;20024;-46
2022/12/12 07:31:05;;;;;;;58.13;25.48;;;;;;;0.99;64.80;98095.56;5092002;28;20038;-46
2022/12/12 07:33:31;;;;;;;41.55;25.27;;;;;;;0.95;63.96;98089.88;5092390;28;20028;-46
2022/12/12 07:36:01;;;;;;;43.13;26.85;;;;;;;0.76;64.96;98092.69;5091986;28;20023;-46
2022/12/12 07:38:27;;;;;;;39.92;24.05;;;;;;;0.85;66.09;98104.69;5092249;28;20076;-46
2022/12/12 07:40:53;;;;;;;46.70;26.65;;;;;;;1.01;65.50;98103.97;5091231;28;20067;-46
2022/12/12 07:43:19;;;;;;;48.20;25.95;;;;;;;1.03;64.71;98103.78;5090890;28;20050;-46
2022/12/12 07:45:46;;;;;;;43.40;26.88;;;;;;;1.04;65.05;98095.09;5091854;28;20424;-46
2022/12/12 07:48:12;;;;;;;41.20;25.38;;;;;;;1.04;64.67;98098.47;5091930;28;20031;-46
2022/12/12 07:50:40;;;;;;;45.50;26.27;;;;;;;1.06;65.09;98101.72;5091937;28;20103;-46
2022/12/12 07:53:06;;;;;;;44.50;24.52;;;;;;;0.96;65.06;98104.41;5090654;28;20024;-46
2022/12/12 07:55:32;;;;;;;44.33;24.23;;;;;;;1.16;65.33;98101.59;5091823;28;20075;-46
2022/12/12 07:57:58;;;;;;;43.08;22.83;;;;;;;1.30;65.42;98103.59;5091789;28;20024;-46
2022/12/12 08:00:24;;;;;;;49.65;27.60;;;;;;;1.60;64.51;98106.63;5091776;28;20082;-46
2022/12/12 08:02:49;;;;;;;41.83;23.60;;;;;;;1.60;64.21;98111.78;5090342;28;20024;-46
2022/12/12 08:05:16;;;;;;;41.50;22.63;;;;;;;1.69;64.20;98110.03;5091763;28;20020;-46
2022/12/12 08:07:41;;;;;;;45.35;23.90;;;;;;;1.89;64.13;98123.50;5091755;28;20115;-46
2022/12/12 08:10:08;;;;;;;44.45;23.60;;;;;;;2.04;64.26;98121.13;5091693;28;20540;-46
2022/12/12 08:12:34;;;;;;;46.95;24.63;;;;;;;2.30;63.96;98128.75;5090394;28;20118;-46
2022/12/12 08:14:59;;;;;;;50.63;23.98;;;;;;;2.52;64.13;98135.06;5091649;28;20086;-46
2022/12/12 08:17:26;;;;;;;36.33;26.33;;;;;;;2.20;60.69;98131.47;5091519;28;20317;-46
2022/12/12 08:19:51;;;;;;;43.42;20.73;;;;;;;1.86;62.46;98141.94;5091379;28;20044;-46
2022/12/12 08:22:17;;;;;;;41.88;25.42;;;;;;;1.78;62.55;98142.72;5091496;28;20077;-46
2022/12/12 08:24:43;;;;;;;51.03;25.75;;;;;;;1.56;62.64;98146.69;5090295;28;20078;-46
2022/12/12 08:27:10;;;;;;;40.88;25.05;;;;;;;1.54;62.98;98151.22;5090262;28;20024;-46
2022/12/12 08:29:36;;;;;;;42.67;23.73;;;;;;;1.51;63.28;98148.91;5091511;28;20099;-46
2022/12/12 08:32:02;;;;;;;48.72;26.33;;;;;;;1.56;63.80;98144.91;5091500;28;20024;-46
2022/12/12 08:34:27;;;;;;;40.60;24.73;;;;;;;1.74;63.53;98144.81;5090166;28;20028;-46
2022/12/12 08:36:53;;;;;;;53.03;24.95;;;;;;;1.78;62.93;98148.69;5090129;28;20039;-46
2022/12/12 08:39:20;;;;;;;43.85;24.80;;;;;;;1.66;62.89;98155.13;5091499;28;20383;-46
2022/12/12 08:41:47;;;;;;;42.58;23.70;;;;;;;1.54;62.26;98152.00;5091332;28;20020;-46
2022/12/12 08:44:14;;;;;;;41.72;23.63;;;;;;;1.31;62.92;98140.59;5090112;28;20024;-46
2022/12/12 08:46:40;;;;;;;50.22;21.13;;;;;;;1.58;64.58;98142.97;5073431;28;20024;-46
2022/12/12 08:49:07;;;;;;;40.47;21.98;;;;;;;2.12;64.09;98139.25;5090055;28;20024;-46
2022/12/12 08:51:34;;;;;;;45.03;23.65;;;;;;;2.30;62.35;98141.69;5090668;28;20081;-46
2022/12/12 08:54:00;;;;;;;39.00;22.08;;;;;;;2.49;62.59;98149.13;5093800;28;20089;-46
2022/12/12 08:56:26;;;;;;;39.05;24.50;;;;;;;2.69;61.35;98141.84;5093627;28;20432;-46
2022/12/12 08:58:51;;;;;;;43.03;22.23;;;;;;;2.69;61.47;98135.84;5094938;28;20031;-46
2022/12/12 09:01:22;;;;;;;38.40;23.38;;;;;;;2.70;62.05;98121.94;5095112;28;20562;-46
2022/12/12 09:03:51;;;;;;;39.67;22.00;;;;;;;2.88;62.63;98119.97;5094831;28;20106;-46
2022/12/12 09:06:17;;;;;;;64.05;39.25;;;;;;;3.16;61.46;98122.16;5094722;28;20405;-46
2022/12/12 09:08:43;;;;;;;38.80;23.58;;;;;;;3.35;60.82;98124.34;5094765;28;20107;-46
2022/12/12 09:11:09;;;;;;;35.65;21.02;;;;;;;3.20;59.50;98126.03;5093375;28;20162;-46
2022/12/12 09:13:35;;;;;;;40.58;22.48;;;;;;;3.11;60.85;98120.06;5094592;28;20040;-46
2022/12/12 09:16:01;;;;;;;40.22;21.05;;;;;;;3.25;60.32;98110.78;5093541;28;20074;-46
2022/12/12 09:18:27;;;;;;;39.53;23.45;;;;;;;3.03;59.05;98111.50;5094590;28;20375;-46
2022/12/12 09:20:55;;;;;;;38.35;21.92;;;;;;;2.88;60.10;98111.34;5094227;28;20058;-46
2022/12/12 09:23:22;;;;;;;44.70;22.48;;;;;;;2.98;59.99;98106.81;5093381;28;20389;-46
2022/12/12 09:25:48;;;;;;;37.15;21.77;;;;;;;3.13;60.75;98106.94;5093070;28;20028;-46
2022/12/12 09:28:18;;;;;;;63.85;35.83;;;;;;;3.37;59.71;98122.41;5094379;28;20436;-46
2022/12/12 09:30:44;;;;;;;42.50;23.35;;;;;;;3.66;59.45;98130.53;5094368;28;20103;-46
2022/12/12 09:33:11;;;;;;;38.42;22.15;;;;;;;3.87;58.37;98129.97;5094246;28;20028;-46
2022/12/12 09:35:37;;;;;;;40.42;23.92;;;;;;;3.80;56.94;98130.66;5093166;28;20032;-48
2022/12/12 09:38:03;;;;;;;39.63;24.50;;;;;;;3.85;58.01;98137.13;5094128;28;20507;-48
2022/12/12 09:40:38;;;;;;;40.33;22.45;;;;;;;4.05;57.09;98133.09;5093024;28;20016;-48
2022/12/12 09:43:05;;;;;;;40.97;22.85;;;;;;;4.31;57.66;98124.16;5094144;28;20371;-48
2022/12/12 09:45:37;;;;;;;35.53;20.90;;;;;;;4.59;56.59;98137.41;5094056;28;20111;-48
2022/12/12 09:48:05;;;;;;;39.70;23.77;;;;;;;4.59;55.66;98142.63;5094054;28;20081;-48
2022/12/12 09:50:38;;;;;;;50.20;30.67;;;;;;;4.67;56.06;98132.16;5093955;28;20016;-48
2022/12/12 09:53:11;;;;;;;55.53;27.13;;;;;;;4.60;55.07;98128.63;5093949;28;20024;-48
2022/12/12 09:55:46;;;;;;;44.50;28.00;;;;;;;4.64;55.56;98140.28;5093905;28;20133;-48
2022/12/12 09:58:17;;;;;;;52.78;25.25;;;;;;;4.89;55.95;98147.84;5094119;28;20401;-48
2022/12/12 10:00:51;;;;;;;43.63;26.00;;;;;;;5.09;54.89;98133.38;5093741;28;20036;-49
2022/12/12 10:03:49;;;;;;;46.03;25.80;;;;;;;5.13;54.83;98131.19;5093282;28;20032;-49
2022/12/12 10:06:17;;;;;;;38.78;23.20;;;;;;;5.33;54.40;98131.47;5091765;28;20094;-48
2022/12/12 10:08:49;;;;;;;48.92;23.95;;;;;;;5.32;54.05;98132.47;5093607;28;20386;-49
2022/12/12 10:14:09;;;;;;;41.05;23.60;;;;;;;6.07;52.99;98117.53;5093791;28;20292;-48
2022/12/12 10:16:37;;;;;;;44.95;26.60;;;;;;;6.28;51.97;98107.13;5075635;28;20031;-49
2022/12/12 10:19:17;;;;;;;41.50;26.77;;;;;;;6.15;51.67;98110.41;5093352;28;20031;-48
2022/12/12 10:21:45;;;;;;;50.80;25.98;;;;;;;6.39;52.15;98111.81;5092974;28;20421;-49
2022/12/12 10:24:29;;;;;;;43.55;26.10;;;;;;;6.66;52.06;98114.66;5093321;28;20394;-49
2022/12/12 10:26:56;;;;;;;37.83;25.42;;;;;;;7.03;51.67;98099.66;5093518;28;20027;-48
2022/12/12 10:29:25;;;;;;;38.53;26.95;;;;;;;7.35;50.80;98089.59;5093206;28;20027;-49
2022/12/12 10:32:12;;;;;;;38.88;26.70;;;;;;;7.43;50.63;98086.00;5093116;28;20043;-49
2022/12/12 10:35:14;;;;;;;42.13;25.17;;;;;;;7.54;50.24;98082.81;5093032;28;20036;-49
2022/12/12 10:38:08;;;;;;;39.85;24.38;;;;;;;7.69;49.68;98073.03;5093069;28;20016;-49
2022/12/12 10:40:54;;;;;;;37.67;25.30;;;;;;;7.69;49.76;98077.47;5093262;28;20548;-49
2022/12/12 10:43:28;;;;;;;35.03;24.20;;;;;;;7.96;48.83;98068.66;5093095;28;20123;-48
2022/12/12 10:46:06;;;;;;;38.13;25.30;;;;;;;8.07;48.22;98059.44;5093165;28;20111;-49
2022/12/12 10:48:33;;;;;;;38.05;25.58;;;;;;;8.07;48.34;98063.84;5092937;28;20082;-49
2022/12/12 10:51:05;;;;;;;35.63;25.02;;;;;;;8.58;48.87;98058.88;5092776;28;20039;-48
2022/12/12 10:53:32;;;;;;;40.17;24.00;;;;;;;9.96;47.08;98051.69;5092792;28;20023;-50
2022/12/12 10:56:02;;;;;;;40.30;26.27;;;;;;;10.86;45.52;98046.16;5092649;28;20028;-49
2022/12/12 10:58:50;;;;;;;35.42;24.33;;;;;;;11.42;43.54;98031.16;5092924;28;20393;-49
2022/12/12 11:01:25;;;;;;;36.17;24.23;;;;;;;11.41;43.17;98034.84;5091573;28;20036;-47
2022/12/12 11:03:53;;;;;;;31.70;23.63;;;;;;;11.53;41.18;98026.97;5092505;28;20047;-47
2022/12/12 11:06:29;;;;;;;34.78;24.40;;;;;;;11.28;41.66;98035.00;5091501;28;20111;-47
2022/12/12 11:09:06;;;;;;;36.67;25.83;;;;;;;10.89;41.87;98023.94;5092523;28;20024;-47
2022/12/12 11:11:31;;;;;;;38.95;23.67;;;;;;;10.82;41.64;98020.56;5092366;28;20443;-47
2022/12/12 11:14:00;;;;;;;38.42;25.20;;;;;;;11.26;40.75;98026.53;5092640;28;20104;-47
2022/12/12 11:16:40;;;;;;;42.53;24.35;;;;;;;11.71;41.08;98024.31;5091397;28;20028;-47
2022/12/12 11:19:26;;;;;;;33.25;24.17;;;;;;;12.03;40.55;98024.06;5091007;28;20024;-47
2022/12/12 11:22:03;;;;;;;30.52;23.60;;;;;;;12.61;39.93;98011.22;5091901;28;20127;-47
2022/12/12 11:24:31;;;;;;;38.83;23.83;;;;;;;12.96;38.48;98004.06;5092199;28;20032;-47
2022/12/12 11:27:03;;;;;;;33.78;23.23;;;;;;;13.23;38.80;97998.25;5092168;28;20031;-47
2022/12/12 11:29:41;;;;;;;35.83;25.00;;;;;;;13.36;37.87;97994.56;5090854;28;20057;-47
2022/12/12 11:32:30;;;;;;;40.72;24.42;;;;;;;13.50;37.70;97988.00;5092417;28;20028;-47
2022/12/12 11:35:02;;;;;;;30.10;23.17;;;;;;;13.51;37.26;97983.53;5092163;28;20027;-47
2022/12/12 11:37:44;;;;;;;30.90;23.17;;;;;;;13.29;37.47;97981.53;5092096;28;20054;-47
2022/12/12 11:40:22;;;;;;;36.13;23.83;;;;;;;13.55;36.76;97974.09;5090716;28;20064;-47
2022/12/12 11:42:48;;;;;;;31.88;23.50;;;;;;;13.91;36.16;97964.16;5091967;28;20516;-48
2022/12/12 11:45:14;;;;;;;36.67;24.40;;;;;;;14.16;35.87;97967.16;5091986;28;20016;-47
2022/12/12 11:47:43;;;;;;;27.80;23.25;;;;;;;14.68;34.88;97970.56;5090526;28;20031;-47
2022/12/12 11:50:24;;;;;;;33.10;23.27;;;;;;;15.19;34.76;97960.59;5091805;28;20028;-47
2022/12/12 11:53:02;;;;;;;28.48;22.38;;;;;;;15.65;33.43;97958.41;5091928;28;20035;-47
2022/12/12 11:56:12;;;;;;;31.13;23.02;;;;;;;15.75;32.91;97945.34;5091800;28;20497;-47
2022/12/12 11:58:48;;;;;;;29.63;21.38;;;;;;;15.80;32.40;97938.50;5090779;28;20118;-47